Terminal Aerodrome Forecast
Issued by NWS Sterling, VA

Current Version | Previous Version | Graphics & Text | Print | Product List | Glossary On
Versions: 1 2 3 4 5 6 7 8 9 10 11 12 13 14 15 16 17
000
FTUS41 KLWX 241125
TAFMRB
TAF
KMRB 241125Z 2412/2512 VRB04KT P6SM FEW250
     FM241400 17007KT P6SM BKN080
     FM241900 17010KT P6SM SCT012 BKN030
     FM250200 VRB04KT P6SM BKN050=

USA.gov is the U.S. government's official web portal to all federal, state and local government web resources and services.